sensor_id;sensor_type;location;lat;lon;timestamp;P1;durP1;ratioP1;P2;durP2;ratioP2
19030;SDS011;9648;51.130;13.978;2022-12-07T00:01:20;34.63;;;18.27;;
19030;SDS011;9648;51.130;13.978;2022-12-07T00:03:49;30.42;;;17.98;;
19030;SDS011;9648;51.130;13.978;2022-12-07T00:06:18;28.88;;;16.40;;
19030;SDS011;9648;51.130;13.978;2022-12-07T00:08:47;32.03;;;16.85;;
19030;SDS011;9648;51.130;13.978;2022-12-07T00:11:14;28.98;;;16.67;;
19030;SDS011;9648;51.130;13.978;2022-12-07T00:13:43;27.73;;;16.40;;
19030;SDS011;9648;51.130;13.978;2022-12-07T00:16:11;31.90;;;17.52;;
19030;SDS011;9648;51.130;13.978;2022-12-07T00:18:39;29.10;;;16.50;;
19030;SDS011;9648;51.130;13.978;2022-12-07T00:21:07;27.63;;;16.00;;
19030;SDS011;9648;51.130;13.978;2022-12-07T00:23:36;27.15;;;16.02;;
19030;SDS011;9648;51.130;13.978;2022-12-07T00:26:05;28.83;;;16.45;;
19030;SDS011;9648;51.130;13.978;2022-12-07T00:28:33;26.30;;;15.57;;
19030;SDS011;9648;51.130;13.978;2022-12-07T00:31:02;26.13;;;15.55;;
19030;SDS011;9648;51.130;13.978;2022-12-07T00:33:30;25.70;;;15.80;;
19030;SDS011;9648;51.130;13.978;2022-12-07T00:35:57;24.25;;;15.02;;
19030;SDS011;9648;51.130;13.978;2022-12-07T00:38:27;25.30;;;15.80;;
19030;SDS011;9648;51.130;13.978;2022-12-07T00:40:55;25.63;;;15.93;;
19030;SDS011;9648;51.130;13.978;2022-12-07T00:43:24;25.65;;;15.52;;
19030;SDS011;9648;51.130;13.978;2022-12-07T00:45:51;22.38;;;14.98;;
19030;SDS011;9648;51.130;13.978;2022-12-07T00:48:17;22.80;;;14.20;;
19030;SDS011;9648;51.130;13.978;2022-12-07T00:50:44;25.27;;;14.80;;
19030;SDS011;9648;51.130;13.978;2022-12-07T00:53:11;23.60;;;14.85;;
19030;SDS011;9648;51.130;13.978;2022-12-07T00:55:38;21.77;;;14.27;;
19030;SDS011;9648;51.130;13.978;2022-12-07T00:58:05;22.90;;;14.30;;
19030;SDS011;9648;51.130;13.978;2022-12-07T01:00:33;22.30;;;14.23;;
19030;SDS011;9648;51.130;13.978;2022-12-07T01:03:03;22.90;;;14.63;;
19030;SDS011;9648;51.130;13.978;2022-12-07T01:05:30;22.00;;;14.05;;
19030;SDS011;9648;51.130;13.978;2022-12-07T01:07:57;20.55;;;13.23;;
19030;SDS011;9648;51.130;13.978;2022-12-07T01:10:23;21.17;;;13.85;;
19030;SDS011;9648;51.130;13.978;2022-12-07T01:12:50;26.98;;;16.65;;
19030;SDS011;9648;51.130;13.978;2022-12-07T01:15:17;24.15;;;14.93;;
19030;SDS011;9648;51.130;13.978;2022-12-07T01:17:45;22.63;;;14.37;;
19030;SDS011;9648;51.130;13.978;2022-12-07T01:20:12;20.27;;;13.32;;
19030;SDS011;9648;51.130;13.978;2022-12-07T01:22:41;22.73;;;14.55;;
19030;SDS011;9648;51.130;13.978;2022-12-07T01:25:09;20.13;;;13.03;;
19030;SDS011;9648;51.130;13.978;2022-12-07T01:27:37;21.77;;;13.88;;
19030;SDS011;9648;51.130;13.978;2022-12-07T01:30:04;24.05;;;14.48;;
19030;SDS011;9648;51.130;13.978;2022-12-07T01:32:32;20.70;;;13.52;;
19030;SDS011;9648;51.130;13.978;2022-12-07T01:35:01;23.00;;;14.10;;
19030;SDS011;9648;51.130;13.978;2022-12-07T01:37:28;23.10;;;14.10;;
19030;SDS011;9648;51.130;13.978;2022-12-07T01:40:00;23.52;;;13.90;;
19030;SDS011;9648;51.130;13.978;2022-12-07T01:42:27;23.52;;;14.65;;
19030;SDS011;9648;51.130;13.978;2022-12-07T01:48:11;25.05;;;14.90;;
19030;SDS011;9648;51.130;13.978;2022-12-07T01:50:42;22.45;;;13.60;;
19030;SDS011;9648;51.130;13.978;2022-12-07T01:53:11;23.00;;;14.50;;
19030;SDS011;9648;51.130;13.978;2022-12-07T01:55:40;23.88;;;15.13;;
19030;SDS011;9648;51.130;13.978;2022-12-07T01:58:10;24.17;;;14.77;;
19030;SDS011;9648;51.130;13.978;2022-12-07T02:00:38;26.35;;;15.68;;
19030;SDS011;9648;51.130;13.978;2022-12-07T02:03:07;22.90;;;14.13;;
19030;SDS011;9648;51.130;13.978;2022-12-07T02:05:37;25.35;;;15.20;;
19030;SDS011;9648;51.130;13.978;2022-12-07T02:08:07;22.35;;;14.27;;
19030;SDS011;9648;51.130;13.978;2022-12-07T02:10:36;23.95;;;14.48;;
19030;SDS011;9648;51.130;13.978;2022-12-07T02:13:06;24.20;;;14.77;;
19030;SDS011;9648;51.130;13.978;2022-12-07T02:15:40;26.45;;;15.88;;
19030;SDS011;9648;51.130;13.978;2022-12-07T02:18:25;27.95;;;15.98;;
19030;SDS011;9648;51.130;13.978;2022-12-07T02:20:59;24.73;;;15.48;;
19030;SDS011;9648;51.130;13.978;2022-12-07T02:23:40;25.55;;;15.70;;
19030;SDS011;9648;51.130;13.978;2022-12-07T02:26:37;27.25;;;15.90;;
19030;SDS011;9648;51.130;13.978;2022-12-07T02:29:26;28.70;;;17.52;;
19030;SDS011;9648;51.130;13.978;2022-12-07T02:32:00;27.45;;;16.60;;
19030;SDS011;9648;51.130;13.978;2022-12-07T02:34:35;27.23;;;16.85;;
19030;SDS011;9648;51.130;13.978;2022-12-07T02:37:18;27.15;;;16.70;;
19030;SDS011;9648;51.130;13.978;2022-12-07T02:39:53;26.02;;;16.23;;
19030;SDS011;9648;51.130;13.978;2022-12-07T02:42:25;25.45;;;16.23;;
19030;SDS011;9648;51.130;13.978;2022-12-07T02:44:57;22.90;;;14.82;;
19030;SDS011;9648;51.130;13.978;2022-12-07T02:47:26;20.92;;;14.05;;
19030;SDS011;9648;51.130;13.978;2022-12-07T02:49:55;20.67;;;12.97;;
19030;SDS011;9648;51.130;13.978;2022-12-07T02:52:22;19.13;;;12.73;;
19030;SDS011;9648;51.130;13.978;2022-12-07T02:54:49;18.07;;;12.27;;
19030;SDS011;9648;51.130;13.978;2022-12-07T02:57:21;17.85;;;11.90;;
19030;SDS011;9648;51.130;13.978;2022-12-07T03:00:03;17.63;;;11.30;;
19030;SDS011;9648;51.130;13.978;2022-12-07T03:02:35;18.65;;;12.55;;
19030;SDS011;9648;51.130;13.978;2022-12-07T03:05:13;18.95;;;12.68;;
19030;SDS011;9648;51.130;13.978;2022-12-07T03:08:21;17.67;;;11.73;;
19030;SDS011;9648;51.130;13.978;2022-12-07T03:10:56;20.90;;;12.70;;
19030;SDS011;9648;51.130;13.978;2022-12-07T03:13:28;17.13;;;12.20;;
19030;SDS011;9648;51.130;13.978;2022-12-07T03:16:02;16.65;;;11.43;;
19030;SDS011;9648;51.130;13.978;2022-12-07T03:18:35;17.80;;;12.13;;
19030;SDS011;9648;51.130;13.978;2022-12-07T03:21:09;18.42;;;12.60;;
19030;SDS011;9648;51.130;13.978;2022-12-07T03:23:40;17.27;;;12.38;;
19030;SDS011;9648;51.130;13.978;2022-12-07T03:26:12;18.73;;;12.60;;
19030;SDS011;9648;51.130;13.978;2022-12-07T03:28:42;19.25;;;13.20;;
19030;SDS011;9648;51.130;13.978;2022-12-07T03:31:15;20.23;;;13.63;;
19030;SDS011;9648;51.130;13.978;2022-12-07T03:33:47;19.83;;;13.23;;
19030;SDS011;9648;51.130;13.978;2022-12-07T03:36:19;19.13;;;13.18;;
19030;SDS011;9648;51.130;13.978;2022-12-07T03:38:50;19.40;;;13.10;;
19030;SDS011;9648;51.130;13.978;2022-12-07T03:41:23;20.08;;;13.80;;
19030;SDS011;9648;51.130;13.978;2022-12-07T03:43:53;18.92;;;13.13;;
19030;SDS011;9648;51.130;13.978;2022-12-07T03:46:25;20.48;;;13.38;;
19030;SDS011;9648;51.130;13.978;2022-12-07T03:48:59;21.77;;;13.77;;
19030;SDS011;9648;51.130;13.978;2022-12-07T03:51:36;20.20;;;13.25;;
19030;SDS011;9648;51.130;13.978;2022-12-07T03:54:08;19.97;;;13.30;;
19030;SDS011;9648;51.130;13.978;2022-12-07T03:56:39;21.50;;;13.90;;
19030;SDS011;9648;51.130;13.978;2022-12-07T03:59:08;21.00;;;14.05;;
19030;SDS011;9648;51.130;13.978;2022-12-07T04:01:38;20.42;;;13.85;;
19030;SDS011;9648;51.130;13.978;2022-12-07T04:04:07;23.83;;;15.23;;
19030;SDS011;9648;51.130;13.978;2022-12-07T04:06:34;23.60;;;14.57;;
19030;SDS011;9648;51.130;13.978;2022-12-07T04:09:01;22.98;;;14.15;;
19030;SDS011;9648;51.130;13.978;2022-12-07T04:11:28;24.40;;;15.57;;
19030;SDS011;9648;51.130;13.978;2022-12-07T04:13:55;26.25;;;16.45;;
19030;SDS011;9648;51.130;13.978;2022-12-07T04:16:40;29.25;;;16.73;;
19030;SDS011;9648;51.130;13.978;2022-12-07T04:19:07;24.70;;;15.57;;
19030;SDS011;9648;51.130;13.978;2022-12-07T04:21:34;25.88;;;14.98;;
19030;SDS011;9648;51.130;13.978;2022-12-07T04:24:01;22.95;;;15.15;;
19030;SDS011;9648;51.130;13.978;2022-12-07T04:26:28;24.95;;;15.35;;
19030;SDS011;9648;51.130;13.978;2022-12-07T04:28:55;26.98;;;16.42;;
19030;SDS011;9648;51.130;13.978;2022-12-07T04:31:21;26.85;;;16.35;;
19030;SDS011;9648;51.130;13.978;2022-12-07T04:33:50;22.38;;;14.70;;
19030;SDS011;9648;51.130;13.978;2022-12-07T04:36:16;26.75;;;16.50;;
19030;SDS011;9648;51.130;13.978;2022-12-07T04:38:44;27.65;;;16.52;;
19030;SDS011;9648;51.130;13.978;2022-12-07T04:41:11;27.30;;;16.60;;
19030;SDS011;9648;51.130;13.978;2022-12-07T04:43:38;23.52;;;15.18;;
19030;SDS011;9648;51.130;13.978;2022-12-07T04:46:05;26.17;;;16.13;;
19030;SDS011;9648;51.130;13.978;2022-12-07T04:48:32;28.80;;;17.40;;
19030;SDS011;9648;51.130;13.978;2022-12-07T04:51:00;28.95;;;16.90;;
19030;SDS011;9648;51.130;13.978;2022-12-07T04:53:28;26.30;;;16.20;;
19030;SDS011;9648;51.130;13.978;2022-12-07T04:55:55;29.23;;;17.48;;
19030;SDS011;9648;51.130;13.978;2022-12-07T04:58:21;29.98;;;17.38;;
19030;SDS011;9648;51.130;13.978;2022-12-07T05:00:48;30.00;;;17.75;;
19030;SDS011;9648;51.130;13.978;2022-12-07T05:03:15;26.90;;;16.23;;
19030;SDS011;9648;51.130;13.978;2022-12-07T05:05:42;27.88;;;16.55;;
19030;SDS011;9648;51.130;13.978;2022-12-07T05:08:10;28.73;;;16.67;;
19030;SDS011;9648;51.130;13.978;2022-12-07T05:10:37;27.33;;;15.97;;
19030;SDS011;9648;51.130;13.978;2022-12-07T05:13:03;27.13;;;16.03;;
19030;SDS011;9648;51.130;13.978;2022-12-07T05:15:30;26.83;;;16.10;;
19030;SDS011;9648;51.130;13.978;2022-12-07T05:17:57;31.33;;;16.80;;
19030;SDS011;9648;51.130;13.978;2022-12-07T05:20:24;29.42;;;16.25;;
19030;SDS011;9648;51.130;13.978;2022-12-07T05:22:50;36.88;;;18.58;;
19030;SDS011;9648;51.130;13.978;2022-12-07T05:25:19;40.78;;;20.92;;
19030;SDS011;9648;51.130;13.978;2022-12-07T05:27:45;53.10;;;28.55;;
19030;SDS011;9648;51.130;13.978;2022-12-07T05:30:13;62.80;;;37.40;;
19030;SDS011;9648;51.130;13.978;2022-12-07T05:32:40;65.35;;;40.03;;
19030;SDS011;9648;51.130;13.978;2022-12-07T05:35:07;57.08;;;34.08;;
19030;SDS011;9648;51.130;13.978;2022-12-07T05:37:34;49.92;;;29.40;;
19030;SDS011;9648;51.130;13.978;2022-12-07T05:40:01;46.70;;;25.08;;
19030;SDS011;9648;51.130;13.978;2022-12-07T05:42:29;38.00;;;21.02;;
19030;SDS011;9648;51.130;13.978;2022-12-07T05:44:56;31.35;;;17.63;;
19030;SDS011;9648;51.130;13.978;2022-12-07T05:47:23;29.90;;;16.92;;
19030;SDS011;9648;51.130;13.978;2022-12-07T05:49:50;25.47;;;16.07;;
19030;SDS011;9648;51.130;13.978;2022-12-07T05:52:16;25.85;;;15.52;;
19030;SDS011;9648;51.130;13.978;2022-12-07T05:54:43;28.77;;;16.50;;
19030;SDS011;9648;51.130;13.978;2022-12-07T05:57:10;27.45;;;15.65;;
19030;SDS011;9648;51.130;13.978;2022-12-07T05:59:39;38.42;;;22.23;;
19030;SDS011;9648;51.130;13.978;2022-12-07T06:02:05;35.97;;;19.85;;
19030;SDS011;9648;51.130;13.978;2022-12-07T06:04:34;33.15;;;19.58;;
19030;SDS011;9648;51.130;13.978;2022-12-07T06:07:02;22.77;;;14.55;;
19030;SDS011;9648;51.130;13.978;2022-12-07T06:09:29;18.40;;;11.68;;
19030;SDS011;9648;51.130;13.978;2022-12-07T06:11:56;18.88;;;12.23;;
19030;SDS011;9648;51.130;13.978;2022-12-07T06:14:43;17.58;;;11.40;;
19030;SDS011;9648;51.130;13.978;2022-12-07T06:17:10;15.52;;;10.63;;
19030;SDS011;9648;51.130;13.978;2022-12-07T06:19:38;15.52;;;10.45;;
19030;SDS011;9648;51.130;13.978;2022-12-07T06:22:05;16.83;;;10.40;;
19030;SDS011;9648;51.130;13.978;2022-12-07T06:24:33;13.70;;;8.98;;
19030;SDS011;9648;51.130;13.978;2022-12-07T06:26:59;13.48;;;9.57;;
19030;SDS011;9648;51.130;13.978;2022-12-07T06:29:26;14.70;;;10.02;;
19030;SDS011;9648;51.130;13.978;2022-12-07T06:31:54;16.95;;;11.10;;
19030;SDS011;9648;51.130;13.978;2022-12-07T06:34:21;16.00;;;10.43;;
19030;SDS011;9648;51.130;13.978;2022-12-07T06:36:49;14.27;;;9.65;;
19030;SDS011;9648;51.130;13.978;2022-12-07T06:39:18;14.35;;;9.20;;
19030;SDS011;9648;51.130;13.978;2022-12-07T06:41:46;13.38;;;9.40;;
19030;SDS011;9648;51.130;13.978;2022-12-07T06:44:13;13.70;;;9.40;;
19030;SDS011;9648;51.130;13.978;2022-12-07T06:46:40;13.90;;;9.20;;
19030;SDS011;9648;51.130;13.978;2022-12-07T06:49:08;13.98;;;9.15;;
19030;SDS011;9648;51.130;13.978;2022-12-07T06:51:35;15.30;;;9.02;;
19030;SDS011;9648;51.130;13.978;2022-12-07T06:54:06;13.70;;;9.35;;
19030;SDS011;9648;51.130;13.978;2022-12-07T06:56:32;13.85;;;8.57;;
19030;SDS011;9648;51.130;13.978;2022-12-07T06:58:59;13.13;;;8.32;;
19030;SDS011;9648;51.130;13.978;2022-12-07T07:01:26;10.73;;;7.50;;
19030;SDS011;9648;51.130;13.978;2022-12-07T07:03:53;11.93;;;8.15;;
19030;SDS011;9648;51.130;13.978;2022-12-07T07:06:21;11.77;;;8.35;;
19030;SDS011;9648;51.130;13.978;2022-12-07T07:08:48;11.65;;;7.95;;
19030;SDS011;9648;51.130;13.978;2022-12-07T07:11:15;11.67;;;8.37;;
19030;SDS011;9648;51.130;13.978;2022-12-07T07:13:42;11.98;;;8.05;;
19030;SDS011;9648;51.130;13.978;2022-12-07T07:16:08;14.48;;;9.80;;
19030;SDS011;9648;51.130;13.978;2022-12-07T07:18:35;15.60;;;9.23;;
19030;SDS011;9648;51.130;13.978;2022-12-07T07:21:02;11.65;;;8.50;;
19030;SDS011;9648;51.130;13.978;2022-12-07T07:23:31;10.77;;;7.95;;
19030;SDS011;9648;51.130;13.978;2022-12-07T07:25:58;11.73;;;8.80;;
19030;SDS011;9648;51.130;13.978;2022-12-07T07:28:25;12.15;;;8.35;;
19030;SDS011;9648;51.130;13.978;2022-12-07T07:30:51;11.48;;;8.55;;
19030;SDS011;9648;51.130;13.978;2022-12-07T07:33:18;12.73;;;8.15;;
19030;SDS011;9648;51.130;13.978;2022-12-07T07:35:45;10.57;;;8.00;;
19030;SDS011;9648;51.130;13.978;2022-12-07T07:38:12;10.13;;;7.63;;
19030;SDS011;9648;51.130;13.978;2022-12-07T07:40:40;11.15;;;8.30;;
19030;SDS011;9648;51.130;13.978;2022-12-07T07:43:07;10.03;;;7.50;;
19030;SDS011;9648;51.130;13.978;2022-12-07T07:45:34;10.87;;;7.60;;
19030;SDS011;9648;51.130;13.978;2022-12-07T07:48:00;9.87;;;7.37;;
19030;SDS011;9648;51.130;13.978;2022-12-07T07:50:27;10.33;;;7.93;;
19030;SDS011;9648;51.130;13.978;2022-12-07T07:52:54;10.37;;;8.07;;
19030;SDS011;9648;51.130;13.978;2022-12-07T07:55:22;10.77;;;7.53;;
19030;SDS011;9648;51.130;13.978;2022-12-07T07:57:50;11.93;;;8.00;;
19030;SDS011;9648;51.130;13.978;2022-12-07T08:00:17;12.07;;;8.43;;
19030;SDS011;9648;51.130;13.978;2022-12-07T08:02:44;11.75;;;8.85;;
19030;SDS011;9648;51.130;13.978;2022-12-07T08:05:12;10.27;;;8.23;;
19030;SDS011;9648;51.130;13.978;2022-12-07T08:07:39;11.52;;;8.20;;
19030;SDS011;9648;51.130;13.978;2022-12-07T08:10:07;11.00;;;8.50;;
19030;SDS011;9648;51.130;13.978;2022-12-07T08:12:36;13.00;;;8.43;;
19030;SDS011;9648;51.130;13.978;2022-12-07T08:15:25;13.07;;;9.18;;
19030;SDS011;9648;51.130;13.978;2022-12-07T08:17:53;11.70;;;9.02;;
19030;SDS011;9648;51.130;13.978;2022-12-07T08:20:20;11.55;;;8.90;;
19030;SDS011;9648;51.130;13.978;2022-12-07T08:22:47;12.20;;;8.80;;
19030;SDS011;9648;51.130;13.978;2022-12-07T08:25:14;12.02;;;9.27;;
19030;SDS011;9648;51.130;13.978;2022-12-07T08:27:41;13.50;;;9.07;;
19030;SDS011;9648;51.130;13.978;2022-12-07T08:30:08;12.63;;;9.50;;
19030;SDS011;9648;51.130;13.978;2022-12-07T08:32:36;13.80;;;9.95;;
19030;SDS011;9648;51.130;13.978;2022-12-07T08:35:03;13.85;;;9.20;;
19030;SDS011;9648;51.130;13.978;2022-12-07T08:37:30;12.27;;;9.38;;
19030;SDS011;9648;51.130;13.978;2022-12-07T08:39:58;14.50;;;10.07;;
19030;SDS011;9648;51.130;13.978;2022-12-07T08:42:25;14.23;;;10.10;;
19030;SDS011;9648;51.130;13.978;2022-12-07T08:44:54;14.95;;;10.35;;
19030;SDS011;9648;51.130;13.978;2022-12-07T08:47:21;15.60;;;10.05;;
19030;SDS011;9648;51.130;13.978;2022-12-07T08:49:51;15.37;;;10.47;;
19030;SDS011;9648;51.130;13.978;2022-12-07T08:52:19;15.80;;;11.30;;
19030;SDS011;9648;51.130;13.978;2022-12-07T08:54:46;16.70;;;10.77;;
19030;SDS011;9648;51.130;13.978;2022-12-07T08:57:13;16.20;;;11.00;;
19030;SDS011;9648;51.130;13.978;2022-12-07T08:59:40;13.25;;;10.10;;
19030;SDS011;9648;51.130;13.978;2022-12-07T09:02:07;16.08;;;11.10;;
19030;SDS011;9648;51.130;13.978;2022-12-07T09:04:34;16.20;;;11.02;;
19030;SDS011;9648;51.130;13.978;2022-12-07T09:07:02;16.67;;;11.75;;
19030;SDS011;9648;51.130;13.978;2022-12-07T09:09:29;17.40;;;10.75;;
19030;SDS011;9648;51.130;13.978;2022-12-07T09:11:56;15.75;;;10.52;;
19030;SDS011;9648;51.130;13.978;2022-12-07T09:14:22;18.83;;;11.18;;
19030;SDS011;9648;51.130;13.978;2022-12-07T09:16:49;21.45;;;12.40;;
19030;SDS011;9648;51.130;13.978;2022-12-07T09:19:16;15.48;;;10.50;;
19030;SDS011;9648;51.130;13.978;2022-12-07T09:21:43;15.23;;;10.18;;
19030;SDS011;9648;51.130;13.978;2022-12-07T09:24:12;18.42;;;12.35;;
19030;SDS011;9648;51.130;13.978;2022-12-07T09:26:39;21.05;;;13.38;;
19030;SDS011;9648;51.130;13.978;2022-12-07T09:29:06;19.40;;;11.95;;
19030;SDS011;9648;51.130;13.978;2022-12-07T09:31:35;23.02;;;13.50;;
19030;SDS011;9648;51.130;13.978;2022-12-07T09:34:02;27.73;;;16.05;;
19030;SDS011;9648;51.130;13.978;2022-12-07T09:36:30;20.13;;;12.37;;
19030;SDS011;9648;51.130;13.978;2022-12-07T09:38:57;19.75;;;13.00;;
19030;SDS011;9648;51.130;13.978;2022-12-07T09:41:26;17.75;;;11.98;;
19030;SDS011;9648;51.130;13.978;2022-12-07T09:43:57;15.13;;;10.60;;
19030;SDS011;9648;51.130;13.978;2022-12-07T09:46:29;17.30;;;10.38;;
19030;SDS011;9648;51.130;13.978;2022-12-07T09:49:02;13.43;;;9.07;;
19030;SDS011;9648;51.130;13.978;2022-12-07T09:51:30;12.50;;;8.70;;
19030;SDS011;9648;51.130;13.978;2022-12-07T09:53:58;13.40;;;8.98;;
19030;SDS011;9648;51.130;13.978;2022-12-07T09:56:28;13.18;;;9.05;;
19030;SDS011;9648;51.130;13.978;2022-12-07T09:58:58;13.45;;;8.88;;
19030;SDS011;9648;51.130;13.978;2022-12-07T10:01:27;11.73;;;8.15;;
19030;SDS011;9648;51.130;13.978;2022-12-07T10:03:59;10.60;;;7.85;;
19030;SDS011;9648;51.130;13.978;2022-12-07T10:06:31;12.80;;;7.80;;
19030;SDS011;9648;51.130;13.978;2022-12-07T10:08:58;10.85;;;7.50;;
19030;SDS011;9648;51.130;13.978;2022-12-07T10:11:26;11.85;;;8.18;;
19030;SDS011;9648;51.130;13.978;2022-12-07T10:13:53;12.07;;;7.23;;
19030;SDS011;9648;51.130;13.978;2022-12-07T10:16:31;10.85;;;7.03;;
19030;SDS011;9648;51.130;13.978;2022-12-07T10:19:20;10.20;;;7.13;;
19030;SDS011;9648;51.130;13.978;2022-12-07T10:22:03;11.10;;;7.07;;
19030;SDS011;9648;51.130;13.978;2022-12-07T10:24:37;11.45;;;7.00;;
19030;SDS011;9648;51.130;13.978;2022-12-07T10:27:13;10.50;;;7.28;;
19030;SDS011;9648;51.130;13.978;2022-12-07T10:29:46;11.30;;;7.57;;
19030;SDS011;9648;51.130;13.978;2022-12-07T10:32:28;11.80;;;7.13;;
19030;SDS011;9648;51.130;13.978;2022-12-07T10:35:18;12.30;;;6.88;;
19030;SDS011;9648;51.130;13.978;2022-12-07T10:37:48;8.40;;;6.00;;
19030;SDS011;9648;51.130;13.978;2022-12-07T10:40:29;11.23;;;6.40;;
19030;SDS011;9648;51.130;13.978;2022-12-07T10:43:04;10.98;;;6.18;;
19030;SDS011;9648;51.130;13.978;2022-12-07T10:45:41;9.90;;;6.15;;
19030;SDS011;9648;51.130;13.978;2022-12-07T10:48:32;10.55;;;5.68;;
19030;SDS011;9648;51.130;13.978;2022-12-07T10:51:05;10.15;;;5.90;;
19030;SDS011;9648;51.130;13.978;2022-12-07T10:53:47;10.43;;;6.20;;
19030;SDS011;9648;51.130;13.978;2022-12-07T10:56:35;10.70;;;6.20;;
19030;SDS011;9648;51.130;13.978;2022-12-07T10:59:35;9.85;;;5.78;;
19030;SDS011;9648;51.130;13.978;2022-12-07T11:02:18;9.75;;;6.47;;
19030;SDS011;9648;51.130;13.978;2022-12-07T11:04:55;9.52;;;5.95;;
19030;SDS011;9648;51.130;13.978;2022-12-07T11:07:34;9.13;;;5.53;;
19030;SDS011;9648;51.130;13.978;2022-12-07T11:10:10;11.13;;;6.40;;
19030;SDS011;9648;51.130;13.978;2022-12-07T11:12:47;9.50;;;6.20;;
19030;SDS011;9648;51.130;13.978;2022-12-07T11:15:24;13.07;;;6.18;;
19030;SDS011;9648;51.130;13.978;2022-12-07T11:17:56;11.25;;;6.15;;
19030;SDS011;9648;51.130;13.978;2022-12-07T11:20:34;10.77;;;6.05;;
19030;SDS011;9648;51.130;13.978;2022-12-07T11:23:12;10.10;;;5.95;;
19030;SDS011;9648;51.130;13.978;2022-12-07T11:25:48;9.83;;;5.70;;
19030;SDS011;9648;51.130;13.978;2022-12-07T11:28:24;10.00;;;5.85;;
19030;SDS011;9648;51.130;13.978;2022-12-07T11:31:05;11.55;;;6.07;;
19030;SDS011;9648;51.130;13.978;2022-12-07T11:33:45;12.57;;;6.25;;
19030;SDS011;9648;51.130;13.978;2022-12-07T11:36:26;10.75;;;6.50;;
19030;SDS011;9648;51.130;13.978;2022-12-07T11:39:11;10.73;;;6.78;;
19030;SDS011;9648;51.130;13.978;2022-12-07T11:41:47;11.48;;;6.97;;
19030;SDS011;9648;51.130;13.978;2022-12-07T11:44:19;11.88;;;6.88;;
19030;SDS011;9648;51.130;13.978;2022-12-07T11:46:58;12.77;;;7.00;;
19030;SDS011;9648;51.130;13.978;2022-12-07T11:49:37;11.65;;;6.78;;
19030;SDS011;9648;51.130;13.978;2022-12-07T11:52:11;11.10;;;6.68;;
19030;SDS011;9648;51.130;13.978;2022-12-07T11:54:44;13.07;;;7.28;;
19030;SDS011;9648;51.130;13.978;2022-12-07T11:57:16;12.02;;;6.80;;
19030;SDS011;9648;51.130;13.978;2022-12-07T11:59:47;10.30;;;7.03;;
19030;SDS011;9648;51.130;13.978;2022-12-07T12:02:20;9.47;;;6.47;;
19030;SDS011;9648;51.130;13.978;2022-12-07T12:04:53;11.43;;;6.22;;
19030;SDS011;9648;51.130;13.978;2022-12-07T12:07:26;10.13;;;5.40;;
19030;SDS011;9648;51.130;13.978;2022-12-07T12:09:54;9.07;;;5.22;;
19030;SDS011;9648;51.130;13.978;2022-12-07T12:12:31;8.03;;;4.80;;
19030;SDS011;9648;51.130;13.978;2022-12-07T12:15:23;6.30;;;4.32;;
19030;SDS011;9648;51.130;13.978;2022-12-07T12:18:04;6.05;;;4.53;;
19030;SDS011;9648;51.130;13.978;2022-12-07T12:20:40;8.50;;;5.20;;
19030;SDS011;9648;51.130;13.978;2022-12-07T12:23:11;9.05;;;5.43;;
19030;SDS011;9648;51.130;13.978;2022-12-07T12:25:41;8.30;;;5.63;;
19030;SDS011;9648;51.130;13.978;2022-12-07T12:28:23;9.27;;;6.25;;
19030;SDS011;9648;51.130;13.978;2022-12-07T12:31:06;10.07;;;6.60;;
19030;SDS011;9648;51.130;13.978;2022-12-07T12:33:38;10.97;;;6.30;;
19030;SDS011;9648;51.130;13.978;2022-12-07T12:36:20;11.40;;;6.90;;
19030;SDS011;9648;51.130;13.978;2022-12-07T12:41:51;8.27;;;5.18;;
19030;SDS011;9648;51.130;13.978;2022-12-07T12:51:35;7.47;;;5.25;;
19030;SDS011;9648;51.130;13.978;2022-12-07T12:54:04;8.40;;;5.00;;
19030;SDS011;9648;51.130;13.978;2022-12-07T12:56:38;12.05;;;5.63;;
19030;SDS011;9648;51.130;13.978;2022-12-07T12:59:23;9.32;;;5.85;;
19030;SDS011;9648;51.130;13.978;2022-12-07T13:01:53;8.23;;;5.13;;
19030;SDS011;9648;51.130;13.978;2022-12-07T13:04:39;7.35;;;5.05;;
19030;SDS011;9648;51.130;13.978;2022-12-07T13:13:29;7.37;;;4.53;;
19030;SDS011;9648;51.130;13.978;2022-12-07T13:25:33;6.75;;;5.13;;
19030;SDS011;9648;51.130;13.978;2022-12-07T13:28:15;8.50;;;5.57;;
19030;SDS011;9648;51.130;13.978;2022-12-07T13:30:50;8.52;;;5.80;;
19030;SDS011;9648;51.130;13.978;2022-12-07T13:33:27;8.05;;;5.63;;
19030;SDS011;9648;51.130;13.978;2022-12-07T13:35:55;6.82;;;5.20;;
19030;SDS011;9648;51.130;13.978;2022-12-07T13:38:27;9.23;;;5.95;;
19030;SDS011;9648;51.130;13.978;2022-12-07T13:41:12;9.68;;;5.70;;
19030;SDS011;9648;51.130;13.978;2022-12-07T13:43:45;8.23;;;5.82;;
19030;SDS011;9648;51.130;13.978;2022-12-07T13:46:15;6.22;;;4.35;;
19030;SDS011;9648;51.130;13.978;2022-12-07T13:48:44;4.80;;;3.75;;
19030;SDS011;9648;51.130;13.978;2022-12-07T13:51:20;5.97;;;3.80;;
19030;SDS011;9648;51.130;13.978;2022-12-07T13:53:49;6.35;;;4.13;;
19030;SDS011;9648;51.130;13.978;2022-12-07T13:56:17;4.80;;;3.83;;
19030;SDS011;9648;51.130;13.978;2022-12-07T13:58:45;6.18;;;3.75;;
19030;SDS011;9648;51.130;13.978;2022-12-07T14:01:12;4.70;;;3.67;;
19030;SDS011;9648;51.130;13.978;2022-12-07T14:03:39;5.78;;;3.33;;
19030;SDS011;9648;51.130;13.978;2022-12-07T14:06:17;5.32;;;3.22;;
19030;SDS011;9648;51.130;13.978;2022-12-07T14:09:05;4.30;;;3.05;;
19030;SDS011;9648;51.130;13.978;2022-12-07T14:11:33;5.40;;;3.30;;
19030;SDS011;9648;51.130;13.978;2022-12-07T14:14:02;4.82;;;3.45;;
19030;SDS011;9648;51.130;13.978;2022-12-07T14:16:31;6.05;;;3.00;;
19030;SDS011;9648;51.130;13.978;2022-12-07T14:19:01;5.75;;;3.17;;
19030;SDS011;9648;51.130;13.978;2022-12-07T14:21:29;5.53;;;3.23;;
19030;SDS011;9648;51.130;13.978;2022-12-07T14:26:48;6.82;;;4.20;;
19030;SDS011;9648;51.130;13.978;2022-12-07T14:29:30;7.53;;;4.68;;
19030;SDS011;9648;51.130;13.978;2022-12-07T14:32:04;7.22;;;4.50;;
19030;SDS011;9648;51.130;13.978;2022-12-07T14:34:52;6.95;;;4.65;;
19030;SDS011;9648;51.130;13.978;2022-12-07T14:37:20;6.95;;;4.70;;
19030;SDS011;9648;51.130;13.978;2022-12-07T14:39:47;6.57;;;4.50;;
19030;SDS011;9648;51.130;13.978;2022-12-07T14:42:14;7.80;;;4.97;;
19030;SDS011;9648;51.130;13.978;2022-12-07T14:44:42;6.25;;;4.82;;
19030;SDS011;9648;51.130;13.978;2022-12-07T14:47:09;7.22;;;5.15;;
19030;SDS011;9648;51.130;13.978;2022-12-07T14:49:37;8.38;;;5.30;;
19030;SDS011;9648;51.130;13.978;2022-12-07T14:52:03;6.77;;;5.37;;
19030;SDS011;9648;51.130;13.978;2022-12-07T14:54:32;7.90;;;5.50;;
19030;SDS011;9648;51.130;13.978;2022-12-07T14:56:59;8.73;;;5.15;;
19030;SDS011;9648;51.130;13.978;2022-12-07T14:59:26;9.02;;;5.35;;
19030;SDS011;9648;51.130;13.978;2022-12-07T15:01:54;8.38;;;6.40;;
19030;SDS011;9648;51.130;13.978;2022-12-07T15:04:21;10.38;;;5.82;;
19030;SDS011;9648;51.130;13.978;2022-12-07T15:06:57;8.52;;;6.57;;
19030;SDS011;9648;51.130;13.978;2022-12-07T15:09:25;10.20;;;6.97;;
19030;SDS011;9648;51.130;13.978;2022-12-07T15:11:52;12.77;;;7.72;;
19030;SDS011;9648;51.130;13.978;2022-12-07T15:14:19;11.07;;;8.07;;
19030;SDS011;9648;51.130;13.978;2022-12-07T15:16:46;9.82;;;7.18;;
19030;SDS011;9648;51.130;13.978;2022-12-07T15:19:14;8.43;;;6.15;;
19030;SDS011;9648;51.130;13.978;2022-12-07T15:21:43;9.32;;;6.28;;
19030;SDS011;9648;51.130;13.978;2022-12-07T15:24:10;12.63;;;7.30;;